Alteheide, Germany

6:58 PM CET on December 06, 2016 (GMT +0100)
Münchener Straße | | Change Station

Elev 249 ft 51.55 °N, 7.69 °E | Updated 1 minute ago

Clear
Clear
34.7 °F
Feels Like 35 °F
N
0.6
Wind Variable Wind from NE
Gusts 1.2 mph

Today
High -- | Low -- °F
--% Chance of Precip.
Yesterday
High -- | Low -- °F
Precip. -- in
Pressure 30.42 in
Visibility -9999.0 miles
Clouds
Windchill 35 °F
Dew Point 30 °F
Humidity 81%
Rainfall 0.00 in
Snow Depth Not available.
8:19 AM 4:20 PM
Waxing Crescent, 43% visible
METAR EDLW 061750Z 14008KT CAVOK 01/M01 Q1030
Pressure 30.42 in
Visibility -9999.0 miles
Clouds
Windchill 35 °F
Dew Point 30 °F
Humidity 81%
Rainfall 0.00 in
Snow Depth Not available.
8:19 AM 4:20 PM
Waxing Crescent, 43% visible
METAR EDLW 061750Z 14008KT CAVOK 01/M01 Q1030

10-Day Weather Forecast

×

Almanac

Astronomy

Dec. 06, 2016 Rise Set
Actual Time
Civil Twilight
Nautical Twilight
Astronomical Twilight
Moon
Length of Visible Light
Length of Day
Tomorrow will be .
, % of the Moon is Illuminated

Today's Extremes

Country Highs Country Lows

Community

WunderPhotos

Upload Photos

1,955,986 photos uploaded!

WunderBlog® & News

Nearby

Air Quality

  Air Quality AQ Index Pollutant
Not available.

Snow Depth

Station Depth Elevation

Earthquake Activity

City Distance Mag. Time & Date
Minimum magnitude displayed is 2.5.

Coastal Water Temperatures

Place Temperature

Stations

Nearby Weather Stations

Station Location Temp. Windchill Dew Point Humidity Wind Precip. Elev Updated Type